Time;durP1;ratioP1;P1;durP2;ratioP2;P2;SDS_P1;SDS_P2;PMS_P1;PMS_P2;Temp;Humidity;BMP_temperature;BMP_pressure;BME280_temperature;BME280_humidity;BME280_pressure;Samples;Min_cycle;Max_cycle;Signal;HPM_P1;HPM_P2
2022/10/14 00:01:31;;;;;;;30.58;22.80;;;;;;;11.35;90.01;98036.69;10376086;28;20455;-59
2022/10/14 00:06:32;;;;;;;29.45;20.83;;;;;;;11.32;89.63;98041.88;10376160;28;20515;-58
2022/10/14 00:11:33;;;;;;;27.42;21.98;;;;;;;11.15;90.00;98015.00;10376386;28;20067;-58
2022/10/14 00:16:35;;;;;;;29.92;20.80;;;;;;;11.24;89.86;98022.81;10375782;28;20025;-58
2022/10/14 00:21:37;;;;;;;32.20;23.15;;;;;;;11.23;90.31;98023.69;10376025;28;20052;-58
2022/10/14 00:26:38;;;;;;;27.92;22.08;;;;;;;11.17;89.87;98010.69;10375783;28;20448;-58
2022/10/14 00:31:37;;;;;;;25.05;19.90;;;;;;;11.19;90.57;98016.75;10375458;28;20067;-58
2022/10/14 00:36:36;;;;;;;27.63;21.02;;;;;;;11.18;89.93;98009.84;10375501;28;20067;-58
2022/10/14 00:41:35;;;;;;;24.23;18.20;;;;;;;11.07;90.74;98020.22;10375243;28;20104;-58
2022/10/14 00:46:35;;;;;;;;;;;;;;;10.97;91.03;98015.88;10375646;28;20061;-58
2022/10/14 00:51:35;;;;;;;25.58;19.27;;;;;;;10.84;91.60;98012.34;10371924;28;20383;-58
2022/10/14 00:56:35;;;;;;;23.45;16.88;;;;;;;10.80;91.73;98010.63;10376165;28;20578;-59
2022/10/14 01:01:34;;;;;;;23.50;18.23;;;;;;;10.80;90.99;98000.25;10379358;28;20060;-58
2022/10/14 01:06:46;;;;;;;27.33;18.10;;;;;;;10.80;91.67;98002.84;10378714;28;20474;-58
2022/10/14 01:11:51;;;;;;;25.83;18.17;;;;;;;10.80;91.38;98002.84;10378522;28;20069;-58
2022/10/14 01:17:02;;;;;;;26.27;19.17;;;;;;;10.77;91.72;97988.09;10378337;28;20380;-58
2022/10/14 01:22:11;;;;;;;23.90;18.25;;;;;;;10.77;91.69;97987.22;10378243;28;20056;-58
2022/10/14 01:27:34;;;;;;;24.52;18.00;;;;;;;10.69;91.85;97986.38;10378189;28;20064;-58
2022/10/14 01:32:33;;;;;;;26.75;19.13;;;;;;;10.48;93.29;97985.44;10377734;28;20056;-58
2022/10/14 01:37:37;;;;;;;26.15;20.67;;;;;;;10.29;93.82;97955.13;10377600;28;20029;-58
2022/10/14 01:42:39;;;;;;;27.10;19.58;;;;;;;10.20;94.36;97987.94;10377586;28;20056;-58
2022/10/14 01:47:40;;;;;;;23.98;17.23;;;;;;;10.17;94.77;97974.09;10376921;28;20056;-58
2022/10/14 01:52:47;;;;;;;26.73;18.63;;;;;;;10.22;94.18;97968.94;10376998;28;20052;-58
2022/10/14 01:57:49;;;;;;;30.23;20.45;;;;;;;10.25;94.43;97972.38;10377096;28;20076;-58
2022/10/14 02:02:48;;;;;;;26.73;19.25;;;;;;;10.25;94.17;97976.72;10376866;28;20052;-58
2022/10/14 02:08:03;;;;;;;25.40;18.00;;;;;;;10.28;93.41;97982.75;10376330;28;20125;-58
2022/10/14 02:13:17;;;;;;;24.42;16.83;;;;;;;10.29;93.71;97976.72;10376717;28;20128;-59
2022/10/14 02:18:25;;;;;;;27.92;17.45;;;;;;;10.29;93.82;97975.88;10376093;28;20056;-58
2022/10/14 02:23:31;;;;;;;23.60;17.20;;;;;;;10.26;94.25;97971.53;10375587;28;20547;-58
2022/10/14 02:28:32;;;;;;;24.38;16.70;;;;;;;10.28;93.86;97971.53;10375607;28;20060;-59
2022/10/14 02:33:37;;;;;;;30.30;18.60;;;;;;;10.25;93.87;97962.00;10374938;28;20065;-58
2022/10/14 02:38:38;;;;;;;27.90;18.77;;;;;;;10.14;94.40;97951.63;10375206;28;20044;-58
2022/10/14 02:43:37;;;;;;;28.95;20.35;;;;;;;10.01;94.93;97957.59;10374982;28;20487;-58
2022/10/14 02:48:37;;;;;;;28.42;18.02;;;;;;;9.92;95.11;97971.38;10374568;28;20057;-59
2022/10/14 02:53:36;;;;;;;23.67;16.98;;;;;;;9.73;94.95;97960.06;10374324;28;20076;-58
2022/10/14 02:58:35;;;;;;;24.90;18.90;;;;;;;9.72;94.76;97965.22;10374255;28;20083;-58
2022/10/14 03:03:34;;;;;;;25.55;17.75;;;;;;;9.74;94.90;97960.91;10374492;28;20028;-58
2022/10/14 03:08:33;;;;;;;25.35;18.45;;;;;;;9.74;94.75;97964.34;10373809;28;20040;-58
2022/10/14 03:13:32;;;;;;;25.95;18.38;;;;;;;9.64;95.03;97939.25;10373961;28;20064;-58
2022/10/14 03:18:31;;;;;;;;;;;;;;;9.87;94.65;97961.84;10373880;28;20045;-58
2022/10/14 03:23:30;;;;;;;23.05;16.95;;;;;;;9.95;94.95;97949.78;10373156;28;20306;-58
2022/10/14 03:28:29;;;;;;;24.00;17.10;;;;;;;9.97;95.09;97943.75;10373341;28;20112;-58
2022/10/14 03:33:28;;;;;;;27.38;18.25;;;;;;;10.12;95.11;97948.16;10373335;28;20044;-58
2022/10/14 03:38:27;;;;;;;27.23;18.50;;;;;;;10.16;94.82;97949.88;10373063;28;20021;-58
2022/10/14 03:43:27;;;;;;;28.70;18.92;;;;;;;10.15;94.68;97942.97;10366004;28;20044;-59
2022/10/14 03:48:26;;;;;;;31.00;19.10;;;;;;;10.22;94.56;97953.38;10371623;28;20488;-58
2022/10/14 03:53:25;;;;;;;28.38;18.67;;;;;;;9.91;95.45;97948.91;10372380;28;20391;-58
2022/10/14 03:58:24;;;;;;;24.63;18.77;;;;;;;9.67;96.58;97954.81;10371774;28;20064;-58
2022/10/14 04:03:23;;;;;;;27.38;18.85;;;;;;;9.53;96.32;97948.69;10372183;28;20061;-58
2022/10/14 04:08:22;;;;;;;30.88;19.33;;;;;;;9.47;96.41;97946.09;10371294;28;20033;-58
2022/10/14 04:13:21;;;;;;;26.70;20.15;;;;;;;9.41;96.42;97943.44;10371549;28;20040;-58
2022/10/14 04:18:20;;;;;;;;;;;;;;;9.39;96.40;97942.56;10339984;28;20061;-58
2022/10/14 04:23:19;;;;;;;31.25;21.30;;;;;;;9.35;95.77;97919.25;10329945;28;19909;-58
2022/10/14 04:28:18;;;;;;;31.15;22.00;;;;;;;9.48;95.71;97937.44;10330936;28;20018;-58
2022/10/14 04:33:17;;;;;;;29.20;22.35;;;;;;;9.51;95.96;97945.22;10337476;28;20513;-58
2022/10/14 04:38:16;;;;;;;30.05;21.55;;;;;;;9.53;95.88;97931.41;10338193;28;20109;-58
2022/10/14 04:43:15;;;;;;;31.83;21.67;;;;;;;9.57;96.13;97932.31;10337682;28;20029;-58
2022/10/14 04:48:15;;;;;;;33.83;21.08;;;;;;;9.61;95.85;97931.47;10332618;28;20480;-58
2022/10/14 04:53:14;;;;;;;27.90;19.98;;;;;;;9.65;96.55;97937.53;10337291;28;20068;-58
2022/10/14 04:58:13;;;;;;;34.85;21.10;;;;;;;9.67;96.06;97936.69;10337668;28;20145;-58
2022/10/14 05:03:12;;;;;;;34.70;24.00;;;;;;;9.45;98.10;97935.69;10338120;28;20060;-58
2022/10/14 05:08:11;;;;;;;38.58;24.50;;;;;;;9.32;98.02;97933.88;10346471;28;20112;-58
2022/10/14 05:13:10;;;;;;;44.90;25.27;;;;;;;9.30;98.08;97946.84;10336376;28;20077;-58
2022/10/14 05:18:10;;;;;;;103.90;65.93;;;;;;;9.22;98.25;97935.50;10336281;28;20065;-58
2022/10/14 05:23:09;;;;;;;147.95;88.72;;;;;;;9.25;98.04;97935.53;10336633;28;20079;-58
2022/10/14 05:28:08;;;;;;;60.77;33.50;;;;;;;9.27;98.02;97939.00;10336305;28;20032;-58
2022/10/14 05:33:07;;;;;;;59.33;44.05;;;;;;;9.42;97.94;97932.22;10335216;28;20096;-58
2022/10/14 05:38:06;;;;;;;48.17;30.65;;;;;;;9.59;97.77;97943.56;10335953;28;20496;-58
2022/10/14 05:43:05;;;;;;;41.20;25.45;;;;;;;9.85;97.61;97937.66;10334025;28;20570;-58
2022/10/14 05:48:04;;;;;;;34.03;23.25;;;;;;;10.04;97.06;97934.28;10335336;28;20048;-58
2022/10/14 05:53:03;;;;;;;33.88;22.42;;;;;;;10.41;97.13;97937.00;10335022;28;20064;-58
2022/10/14 05:58:03;;;;;;;34.67;22.30;;;;;;;10.72;95.88;97942.25;10335780;28;20455;-58
2022/10/14 06:03:02;;;;;;;35.75;21.60;;;;;;;10.92;94.22;97955.28;10334656;28;20061;-58
2022/10/14 06:08:01;;;;;;;47.17;25.40;;;;;;;10.97;93.83;97945.78;10333747;28;20061;-58
2022/10/14 06:13:00;;;;;;;30.17;17.30;;;;;;;11.00;91.38;97957.00;10334882;28;20462;-58
2022/10/14 06:17:59;;;;;;;36.55;19.65;;;;;;;11.10;91.68;97967.41;10334701;28;20068;-58
2022/10/14 06:22:58;;;;;;;27.75;18.10;;;;;;;11.12;91.66;97971.72;10334813;28;20092;-58
2022/10/14 06:28:02;;;;;;;30.58;20.75;;;;;;;11.21;91.45;97973.47;10334697;28;20128;-58
2022/10/14 06:33:01;;;;;;;30.90;18.38;;;;;;;11.35;91.10;97963.94;10334228;28;20061;-58
2022/10/14 06:38:00;;;;;;;26.88;18.95;;;;;;;11.50;89.73;97973.44;10330532;28;20030;-58
2022/10/14 06:42:59;;;;;;;23.35;16.70;;;;;;;11.61;89.01;97965.63;10333210;28;20399;-58
2022/10/14 06:47:58;;;;;;;23.63;15.77;;;;;;;11.61;88.88;97971.69;10308143;28;20040;-59
2022/10/14 06:52:57;;;;;;;17.05;10.45;;;;;;;11.78;87.69;97971.69;10294881;28;20038;-59
2022/10/14 06:57:56;;;;;;;18.98;13.75;;;;;;;11.96;86.66;97962.94;10332165;28;20076;-58
2022/10/14 07:02:58;;;;;;;23.15;15.18;;;;;;;12.15;85.98;97960.28;10335444;28;20056;-58
2022/10/14 07:07:57;;;;;;;17.98;13.07;;;;;;;12.34;85.35;97959.34;10335190;28;20080;-58
2022/10/14 07:12:56;;;;;;;20.67;14.25;;;;;;;12.44;84.16;97955.84;10334995;28;20526;-58
2022/10/14 07:17:55;;;;;;;17.63;12.40;;;;;;;12.65;84.40;97960.06;10334883;28;20029;-58
2022/10/14 07:22:55;;;;;;;18.23;10.63;;;;;;;12.87;82.52;97955.56;10334865;28;20036;-59
2022/10/14 07:27:54;;;;;;;13.55;8.52;;;;;;;12.86;79.64;97952.97;10334505;28;20064;-58
2022/10/14 07:32:53;;;;;;;15.40;9.75;;;;;;;13.04;79.78;97962.41;10332321;28;20037;-58
2022/10/14 07:37:54;;;;;;;15.13;10.05;;;;;;;13.23;78.38;97947.47;10333896;28;20061;-58
2022/10/14 07:42:53;;;;;;;14.10;9.68;;;;;;;13.36;75.30;97949.13;10334148;28;20029;-58
2022/10/14 07:47:52;;;;;;;20.48;13.82;;;;;;;13.61;75.51;97943.69;10333423;28;20049;-58
2022/10/14 07:52:50;;;;;;;8.63;6.47;;;;;;;13.77;70.87;97946.13;10330621;28;20037;-59
2022/10/14 07:57:49;;;;;;;9.65;5.47;;;;;;;13.84;63.08;97941.69;10330294;28;20350;-58
2022/10/14 08:02:48;;;;;;;14.88;5.97;;;;;;;13.92;63.38;97921.63;10331115;28;20120;-58
2022/10/14 08:07:47;;;;;;;11.18;6.60;;;;;;;13.88;64.03;97925.13;10338579;28;20026;-59
2022/10/14 08:12:46;;;;;;;14.10;6.28;;;;;;;14.04;61.54;97927.56;10338664;28;20033;-58
2022/10/14 08:17:45;;;;;;;12.85;6.88;;;;;;;13.96;59.35;97925.91;10337811;28;20052;-58
2022/10/14 08:22:44;;;;;;;8.13;5.70;;;;;;;14.16;60.70;97906.53;10338453;28;20559;-59
2022/10/14 08:27:43;;;;;;;12.75;5.45;;;;;;;14.52;59.65;97922.56;10338194;28;20416;-58
2022/10/14 08:32:42;;;;;;;12.43;6.43;;;;;;;14.66;56.09;97911.94;10337792;28;20033;-59
2022/10/14 08:37:41;;;;;;;12.43;5.57;;;;;;;14.79;56.82;97896.09;10337621;28;20033;-58
2022/10/14 08:42:56;;;;;;;12.13;6.18;;;;;;;14.92;55.46;97920.28;10337539;28;20029;-58
2022/10/14 08:47:57;;;;;;;13.05;6.80;;;;;;;14.92;53.41;97924.63;10337483;28;20075;-58
2022/10/14 08:53:09;;;;;;;9.07;5.00;;;;;;;15.17;54.21;97915.50;10337252;28;20065;-58
2022/10/14 08:58:17;;;;;;;9.10;4.75;;;;;;;15.23;52.98;97923.25;10335490;28;20076;-59
2022/10/14 09:03:22;;;;;;;11.95;5.55;;;;;;;15.40;54.23;97920.34;10336493;28;20057;-58
2022/10/14 09:08:29;;;;;;;9.77;5.03;;;;;;;15.28;53.43;97917.09;10336774;28;20057;-59
2022/10/14 09:13:37;;;;;;;9.65;5.28;;;;;;;15.34;53.25;97915.25;10336108;28;20490;-59
2022/10/14 09:18:41;;;;;;;10.23;5.28;;;;;;;15.54;52.81;97904.41;10335551;28;20504;-59
2022/10/14 09:23:39;;;;;;;8.55;5.00;;;;;;;15.61;52.51;97897.31;10335524;28;20069;-58
2022/10/14 09:28:40;;;;;;;;;;;;;;;15.67;52.23;97899.81;10336193;28;20025;-59
2022/10/14 09:33:40;;;;;;;;;;;;;;;15.74;51.95;97896.19;10332242;28;20395;-59
2022/10/14 09:38:39;;;;;;;8.50;4.75;;;;;;;15.91;50.78;97898.50;10328894;28;19951;-59
2022/10/14 09:44:17;;;;;;;11.73;5.30;;;;;;;16.22;51.20;97882.16;10331562;28;20045;-59
2022/10/14 09:49:44;;;;;;;8.48;4.82;;;;;;;16.45;49.11;97881.66;10332396;28;20073;-58
2022/10/14 09:54:43;;;;;;;9.63;5.43;;;;;;;16.57;48.30;97876.13;10334026;28;20073;-58
2022/10/14 10:00:08;;;;;;;;;;;;;;;16.67;48.03;97879.38;10334171;28;20099;-59
2022/10/14 10:05:21;;;;;;;7.30;4.50;;;;;;;16.76;47.04;97876.53;10331077;28;19956;-59
2022/10/14 10:10:21;;;;;;;7.00;3.88;;;;;;;16.61;46.40;97874.31;10333768;28;20088;-58
2022/10/14 10:15:20;;;;;;;7.82;4.25;;;;;;;16.54;46.37;97870.97;10333808;28;20508;-59
2022/10/14 10:20:30;;;;;;;9.57;4.53;;;;;;;16.75;46.63;97866.97;10333882;28;20053;-59
2022/10/14 10:25:29;;;;;;;6.38;4.03;;;;;;;16.82;46.58;97857.25;10332805;28;20515;-58
2022/10/14 10:30:47;;;;;;;8.70;4.65;;;;;;;17.09;46.10;97848.66;10362674;28;20488;-58
2022/10/14 10:35:55;;;;;;;8.70;4.90;;;;;;;17.34;46.77;97848.03;10378229;28;20103;-59
2022/10/14 10:41:02;;;;;;;7.70;5.00;;;;;;;17.35;45.64;97842.75;10346187;28;20068;-59
2022/10/14 10:46:07;;;;;;;7.75;4.63;;;;;;;17.64;45.67;97843.72;10337299;28;20337;-58
2022/10/14 10:51:15;;;;;;;9.23;4.80;;;;;;;17.71;44.92;97836.53;10334526;28;20069;-59
2022/10/14 10:56:38;;;;;;;6.55;4.60;;;;;;;17.68;45.37;97832.25;10333393;28;20068;-59
2022/10/14 11:02:06;;;;;;;9.27;4.47;;;;;;;17.59;45.19;97835.13;10333891;28;20068;-59
2022/10/14 11:13:13;;;;;;;6.95;4.30;;;;;;;17.13;45.58;97831.09;10310550;28;20083;-59
2022/10/14 11:18:27;;;;;;;7.95;5.20;;;;;;;16.81;46.62;97806.56;10333811;28;20060;-58
2022/10/14 11:23:34;;;;;;;7.55;4.07;;;;;;;16.97;46.27;97809.66;10333683;28;20075;-58
2022/10/14 11:28:52;;;;;;;9.63;4.50;;;;;;;16.83;46.52;97799.53;10334237;28;20495;-58
2022/10/14 11:33:57;;;;;;;9.20;4.28;;;;;;;16.92;46.50;97799.28;10334090;28;20061;-58
2022/10/14 11:39:04;;;;;;;8.27;4.45;;;;;;;17.03;45.91;97778.06;10333538;28;20084;-58
2022/10/14 11:44:28;;;;;;;11.50;4.15;;;;;;;17.33;46.65;97791.22;10333386;28;20076;-58
2022/10/14 11:49:43;;;;;;;6.75;4.07;;;;;;;17.38;46.54;97777.97;10333754;28;20080;-58
2022/10/14 11:54:49;;;;;;;8.23;4.40;;;;;;;17.56;47.02;97782.69;10332781;28;20531;-58
2022/10/14 12:00:20;;;;;;;8.18;4.95;;;;;;;17.62;46.48;97777.28;10332746;28;20072;-58
2022/10/14 12:05:55;;;;;;;10.30;5.43;;;;;;;17.76;46.07;97777.78;10333084;28;20053;-58
2022/10/14 12:11:01;;;;;;;25.27;22.60;;;;;;;17.52;45.64;97774.06;10333174;28;20072;-58
2022/10/14 12:16:04;;;;;;;19.17;15.60;;;;;;;17.52;46.33;97775.84;10332247;28;20069;-58
2022/10/14 12:21:15;;;;;;;8.07;4.40;;;;;;;17.23;44.95;97771.41;10330777;28;20073;-58
2022/10/14 12:26:23;;;;;;;6.40;4.05;;;;;;;17.23;45.53;97780.13;10333053;28;20065;-58
2022/10/14 12:31:35;;;;;;;12.60;4.85;;;;;;;17.03;44.04;97772.81;10331658;28;20083;-58
2022/10/14 12:36:34;;;;;;;10.50;6.15;;;;;;;17.15;43.62;97782.09;10329919;28;20073;-58
2022/10/14 12:41:35;;;;;;;9.40;4.15;;;;;;;17.07;43.45;97776.19;10329906;28;20408;-58
2022/10/14 12:46:42;;;;;;;7.88;4.25;;;;;;;17.10;43.30;97779.59;10329215;28;20065;-58
2022/10/14 12:51:55;;;;;;;6.57;4.00;;;;;;;17.13;43.14;97782.13;10336021;28;20060;-58
2022/10/14 12:56:59;;;;;;;7.50;3.83;;;;;;;17.14;42.48;97785.63;10337544;28;20465;-58
2022/10/14 13:02:03;;;;;;;7.78;3.80;;;;;;;17.08;42.94;97785.78;10338146;28;20068;-59
2022/10/14 13:07:26;;;;;;;9.38;4.55;;;;;;;17.22;42.75;97788.91;10337966;28;20316;-58
2022/10/14 13:12:25;;;;;;;6.60;4.05;;;;;;;17.40;42.92;97787.50;10340578;28;20053;-58
2022/10/14 13:17:28;;;;;;;8.73;3.90;;;;;;;17.39;41.87;97787.59;10340362;28;20024;-58
2022/10/14 13:22:27;;;;;;;6.82;3.80;;;;;;;16.99;41.52;97796.53;10340232;28;20025;-58
2022/10/14 13:27:50;;;;;;;10.15;3.95;;;;;;;16.93;42.63;97787.03;10340228;28;20033;-58
2022/10/14 13:32:57;;;;;;;9.98;4.80;;;;;;;16.90;42.61;97787.97;10339941;28;20053;-58
2022/10/14 13:38:11;;;;;;;9.88;5.18;;;;;;;16.80;42.52;97785.63;10339877;28;20504;-58
2022/10/14 13:43:34;;;;;;;10.52;5.82;;;;;;;16.58;43.46;97794.00;10339708;28;20052;-58
2022/10/14 13:48:37;;;;;;;9.50;4.80;;;;;;;16.60;43.88;97789.59;10338637;28;20057;-58
2022/10/14 13:53:49;;;;;;;7.40;4.28;;;;;;;16.43;43.65;97794.38;10364849;28;20053;-58
2022/10/14 13:58:48;;;;;;;11.85;4.63;;;;;;;16.39;43.62;97792.72;10335103;28;20077;-58
2022/10/14 14:03:52;;;;;;;;;;;;;;;16.27;43.88;97793.88;10335549;28;20099;-58
2022/10/14 14:08:55;;;;;;;30.30;18.33;;;;;;;16.33;43.76;97785.88;10334666;28;19948;-58
2022/10/14 14:14:01;;;;;;;10.77;8.50;;;;;;;16.31;43.34;97787.69;10334734;28;20448;-58
2022/10/14 14:19:01;;;;;;;8.63;3.92;;;;;;;16.38;43.28;97788.41;10335006;28;20120;-58
2022/10/14 14:24:01;;;;;;;7.60;3.80;;;;;;;16.41;43.42;97781.31;10334451;28;20064;-58
2022/10/14 14:29:04;;;;;;;9.38;4.03;;;;;;;16.48;43.26;97785.50;10334041;28;20068;-58
2022/10/14 14:34:03;;;;;;;6.32;3.80;;;;;;;16.35;43.25;97778.84;10334978;28;20056;-58
2022/10/14 14:39:02;;;;;;;7.97;2.88;;;;;;;16.25;43.52;97777.34;10329754;28;20075;-58
2022/10/14 14:44:05;;;;;;;8.23;3.97;;;;;;;15.98;43.75;97784.06;10331901;28;20052;-58
2022/10/14 14:49:06;;;;;;;7.97;3.70;;;;;;;15.79;44.29;97786.25;10331355;28;20057;-58
2022/10/14 14:54:06;;;;;;;8.98;4.78;;;;;;;15.83;44.94;97782.63;10331590;28;20057;-58
2022/10/14 14:59:22;;;;;;;20.10;6.72;;;;;;;15.99;45.77;97785.78;10330846;28;20087;-58
2022/10/14 15:04:24;;;;;;;13.13;7.40;;;;;;;16.03;45.84;97784.84;10331932;28;20451;-58
2022/10/14 15:09:34;;;;;;;12.68;6.20;;;;;;;16.08;46.35;97791.66;10330563;28;20083;-58
2022/10/14 15:15:01;;;;;;;9.85;5.32;;;;;;;15.95;46.16;97790.25;10329803;28;20073;-58
2022/10/14 15:20:27;;;;;;;12.90;7.40;;;;;;;15.91;47.29;97783.34;10330513;28;20068;-58
2022/10/14 15:25:31;;;;;;;17.85;8.75;;;;;;;15.79;47.12;97784.47;10328017;28;20512;-58
2022/10/14 15:30:34;;;;;;;20.88;8.68;;;;;;;15.72;48.02;97776.78;10306033;28;20072;-58
2022/10/14 15:35:34;;;;;;;20.98;8.65;;;;;;;15.65;47.85;97791.72;10329859;28;20125;-58
2022/10/14 15:40:33;;;;;;;19.50;8.45;;;;;;;15.47;47.94;97795.56;10330289;28;20053;-58
2022/10/14 15:45:32;;;;;;;25.10;8.60;;;;;;;15.31;48.72;97792.38;10329648;28;20069;-58
2022/10/14 15:50:31;;;;;;;;;;;;;;;15.14;50.03;97794.47;10330357;28;20037;-58
2022/10/14 15:55:33;;;;;;;13.88;7.50;;;;;;;14.88;50.37;97790.56;10329744;28;19949;-58
2022/10/14 16:00:32;;;;;;;15.48;7.93;;;;;;;14.68;51.14;97790.88;10329338;28;20077;-59
2022/10/14 16:05:31;;;;;;;15.40;8.25;;;;;;;14.51;51.65;97803.34;10330106;28;20057;-59
2022/10/14 16:10:31;;;;;;;25.13;8.73;;;;;;;14.30;52.64;97815.84;10329267;28;20077;-58
2022/10/14 16:15:37;;;;;;;;;;;;;;;14.09;52.75;97808.34;10331120;28;20033;-58
2022/10/14 16:20:37;;;;;;;13.35;6.93;;;;;;;13.84;53.57;97802.59;10330944;28;19948;-58
2022/10/14 16:25:42;;;;;;;13.05;6.25;;;;;;;13.61;53.65;97808.09;10334051;28;20061;-59
2022/10/14 16:30:49;;;;;;;10.00;5.43;;;;;;;13.35;54.36;97809.22;10337393;28;20077;-58
2022/10/14 16:35:51;;;;;;;12.90;6.95;;;;;;;13.12;55.00;97815.56;10335612;28;20776;-58
2022/10/14 16:40:54;;;;;;;13.10;6.75;;;;;;;12.92;55.51;97823.56;10336896;28;20123;-58
2022/10/14 16:45:57;;;;;;;14.93;7.15;;;;;;;12.70;55.72;97820.28;10338044;28;20065;-59
2022/10/14 16:50:56;;;;;;;23.77;12.70;;;;;;;12.45;57.58;97845.66;10331889;28;20539;-58
2022/10/14 16:55:56;;;;;;;26.48;14.00;;;;;;;12.29;57.75;97831.88;10335909;28;20479;-58
2022/10/14 17:00:55;;;;;;;28.83;17.90;;;;;;;12.26;58.34;97844.88;10334246;28;20092;-58
2022/10/14 17:06:00;;;;;;;25.35;15.02;;;;;;;12.21;58.64;97843.19;10336336;28;20029;-58
2022/10/14 17:10:59;;;;;;;27.55;15.35;;;;;;;12.13;58.61;97856.22;10335305;28;20091;-58
2022/10/14 17:16:00;;;;;;;20.73;14.00;;;;;;;12.07;59.45;97851.94;10333969;28;20079;-58
2022/10/14 17:21:11;;;;;;;19.27;12.43;;;;;;;11.95;59.85;97858.94;10335328;28;20065;-58
2022/10/14 17:26:13;;;;;;;17.50;9.50;;;;;;;11.85;60.43;97845.09;10335341;28;20511;-58
2022/10/14 17:31:18;;;;;;;16.42;9.60;;;;;;;11.82;60.71;97848.56;10329628;28;20065;-59
2022/10/14 17:36:23;;;;;;;20.35;11.60;;;;;;;11.73;61.14;97855.56;10333770;28;20073;-58
2022/10/14 17:41:23;;;;;;;20.38;11.60;;;;;;;11.64;61.56;97857.34;10334216;28;20069;-58
2022/10/14 17:46:24;;;;;;;18.38;11.10;;;;;;;11.57;61.69;97862.53;10333458;28;20065;-58
2022/10/14 17:51:25;;;;;;;14.90;9.30;;;;;;;11.49;61.99;97862.56;10337145;28;20096;-58
2022/10/14 17:56:26;;;;;;;15.63;8.73;;;;;;;11.41;62.34;97860.00;10337231;28;20555;-58
2022/10/14 18:01:26;;;;;;;13.40;8.10;;;;;;;11.34;62.52;97860.00;10332314;28;20496;-58
2022/10/14 18:06:28;;;;;;;15.90;9.15;;;;;;;11.24;63.29;97872.16;10338343;28;20029;-58
2022/10/14 18:11:29;;;;;;;15.10;8.35;;;;;;;11.17;63.10;97876.47;10336613;28;20069;-58
2022/10/14 18:16:32;;;;;;;26.58;15.98;;;;;;;11.06;63.24;97877.34;10336342;28;20600;-58
2022/10/14 18:21:33;;;;;;;17.27;9.65;;;;;;;11.00;63.59;97876.50;10336775;28;20065;-58
2022/10/14 18:26:33;;;;;;;19.73;11.27;;;;;;;10.97;64.00;97883.44;10335959;28;20076;-57
2022/10/14 18:31:32;;;;;;;24.25;13.73;;;;;;;10.92;64.50;97883.44;10328246;28;20081;-57
2022/10/14 18:36:32;;;;;;;22.05;11.10;;;;;;;10.89;64.12;97888.63;10335734;28;20088;-57
2022/10/14 18:41:32;;;;;;;24.17;14.77;;;;;;;10.85;64.85;97889.47;10335515;28;20095;-57
2022/10/14 18:46:34;;;;;;;25.42;15.05;;;;;;;10.83;65.09;97892.06;10335062;28;20090;-57
2022/10/14 18:51:35;;;;;;;20.58;11.27;;;;;;;10.83;66.63;97891.22;10331743;28;20504;-57
2022/10/14 18:56:39;;;;;;;21.67;10.50;;;;;;;10.83;66.01;97883.41;10331347;28;20076;-58
2022/10/14 19:01:38;;;;;;;20.73;11.27;;;;;;;10.91;66.49;97897.28;10331124;28;20064;-57
2022/10/14 19:06:38;;;;;;;18.20;11.05;;;;;;;10.92;67.34;97895.56;10327115;28;20064;-57
2022/10/14 19:11:37;;;;;;;20.98;11.68;;;;;;;11.04;66.81;97903.34;10330886;28;20069;-57
2022/10/14 19:16:37;;;;;;;23.60;14.65;;;;;;;11.10;67.11;97907.66;10330315;28;20071;-57
2022/10/14 19:21:37;;;;;;;24.20;13.57;;;;;;;11.16;67.83;97905.94;10331392;28;20056;-57
2022/10/14 19:26:40;;;;;;;24.40;15.23;;;;;;;11.23;67.72;97912.84;10330700;28;20064;-57
2022/10/14 19:31:39;;;;;;;22.25;14.27;;;;;;;11.30;67.93;97913.72;10329671;28;20064;-57
2022/10/14 19:36:39;;;;;;;24.15;14.88;;;;;;;11.35;67.44;97924.09;10325190;28;20092;-57
2022/10/14 19:41:41;;;;;;;22.42;14.88;;;;;;;11.39;67.20;97934.50;10329934;28;20092;-57
2022/10/14 19:46:41;;;;;;;25.38;16.23;;;;;;;11.43;67.61;97936.22;10327660;28;20533;-57
2022/10/14 19:51:40;;;;;;;24.42;17.90;;;;;;;11.50;67.97;97941.38;10329811;28;20150;-57
2022/10/14 19:56:40;;;;;;;29.67;19.38;;;;;;;11.51;67.81;97945.75;10330198;28;20080;-57
2022/10/14 20:01:39;;;;;;;28.35;18.40;;;;;;;11.57;67.71;97944.00;10329719;28;20069;-57
2022/10/14 20:06:39;;;;;;;26.20;17.02;;;;;;;11.60;67.34;97927.53;10329852;28;20076;-57
2022/10/14 20:11:38;;;;;;;27.92;18.23;;;;;;;11.61;68.17;97939.63;10329981;28;20076;-57
2022/10/14 20:16:37;;;;;;;28.42;18.08;;;;;;;11.68;68.39;97936.16;10329991;28;20061;-57
2022/10/14 20:21:36;;;;;;;41.58;22.67;;;;;;;11.66;68.67;97937.88;10331606;28;20033;-58
2022/10/14 20:26:36;;;;;;;42.92;22.77;;;;;;;11.66;68.95;97948.28;10345949;28;20532;-58
2022/10/14 20:31:35;;;;;;;41.20;25.50;;;;;;;11.65;68.92;97944.81;10331136;28;20069;-58
2022/10/14 20:36:34;;;;;;;29.55;18.98;;;;;;;11.70;69.42;97943.97;10330905;28;20409;-58
2022/10/14 20:41:33;;;;;;;30.38;17.73;;;;;;;11.72;69.85;97935.28;10330802;28;20033;-58
2022/10/14 20:46:32;;;;;;;28.70;17.27;;;;;;;11.76;69.82;97937.00;10330776;28;20131;-58
2022/10/14 20:51:31;;;;;;;27.67;16.35;;;;;;;11.78;69.35;97937.00;10333305;28;20057;-57
2022/10/14 20:56:31;;;;;;;;;;;;;;;11.78;69.86;97932.69;10334383;28;20077;-58
2022/10/14 21:01:31;;;;;;;46.13;27.20;;;;;;;11.76;69.74;97947.41;10334346;28;19955;-57
2022/10/14 21:06:30;;;;;;;35.92;24.73;;;;;;;11.77;70.27;97941.34;10333656;28;20057;-58
2022/10/14 21:11:29;;;;;;;40.55;20.52;;;;;;;11.79;70.86;97939.59;10335216;28;20033;-57
2022/10/14 21:16:33;;;;;;;43.53;31.13;;;;;;;11.78;71.21;97945.69;10341164;28;20068;-58
2022/10/14 21:21:40;;;;;;;34.60;22.15;;;;;;;11.71;71.30;97940.47;10340611;28;20026;-57
2022/10/14 21:26:39;;;;;;;35.40;24.20;;;;;;;11.70;71.57;97943.97;10340482;28;20037;-59
2022/10/14 21:31:38;;;;;;;36.33;24.67;;;;;;;11.73;71.75;97946.53;10340209;28;20025;-58
2022/10/14 21:36:38;;;;;;;47.80;28.65;;;;;;;11.76;72.15;97947.41;10340273;28;20312;-57
2022/10/14 21:41:38;;;;;;;40.20;26.45;;;;;;;11.78;72.43;97945.69;10339885;28;20025;-57
2022/10/14 21:46:37;;;;;;;40.70;25.02;;;;;;;11.79;72.43;97952.59;10339650;28;20056;-57
2022/10/14 21:51:37;;;;;;;33.67;22.30;;;;;;;11.72;72.89;97950.03;10336556;28;20040;-57
2022/10/14 21:56:36;;;;;;;27.85;17.90;;;;;;;11.63;72.97;97951.75;10335797;28;20084;-58
2022/10/14 22:01:35;;;;;;;33.13;21.90;;;;;;;11.61;73.39;97955.22;10335509;28;20461;-57
2022/10/14 22:06:35;;;;;;;32.03;23.33;;;;;;;11.65;73.96;97949.16;10335168;28;20460;-58
2022/10/14 22:11:36;;;;;;;23.80;15.93;;;;;;;11.64;73.91;97955.22;10335301;28;20069;-58
2022/10/14 22:16:35;;;;;;;24.35;15.05;;;;;;;11.53;73.33;97959.59;10334420;28;20079;-57
2022/10/14 22:21:36;;;;;;;23.70;14.80;;;;;;;11.53;73.40;97959.59;10331010;28;20044;-58
2022/10/14 22:26:36;;;;;;;22.30;14.15;;;;;;;11.52;73.51;97957.84;10331945;28;20534;-58
2022/10/14 22:31:35;;;;;;;24.20;15.10;;;;;;;11.56;73.35;97954.38;10332013;28;20121;-58
2022/10/14 22:36:34;;;;;;;24.77;15.23;;;;;;;11.59;73.54;97959.56;10333916;28;20076;-58
2022/10/14 22:41:33;;;;;;;24.58;16.08;;;;;;;11.60;73.20;97961.31;10334212;28;20060;-58
2022/10/14 22:46:34;;;;;;;;;;;;;;;11.61;73.58;97965.63;10334961;28;20076;-58
2022/10/14 22:51:34;;;;;;;;;;;;;;;11.64;73.62;97970.81;10334457;28;20067;-58
2022/10/14 22:56:33;;;;;;;29.98;18.33;;;;;;;11.55;73.85;97965.63;10332515;28;19955;-58
2022/10/14 23:01:32;;;;;;;28.52;19.98;;;;;;;11.55;74.11;97971.72;10333447;28;20068;-58
2022/10/14 23:06:31;;;;;;;;;;;;;;;11.56;74.30;97977.78;10333455;28;20068;-58
2022/10/14 23:11:30;;;;;;;29.20;21.02;;;;;;;11.51;74.59;97974.31;10333327;28;19917;-58
2022/10/14 23:16:29;;;;;;;30.92;21.88;;;;;;;11.54;75.40;97971.72;10332676;28;20472;-58
2022/10/14 23:21:31;;;;;;;34.97;23.70;;;;;;;11.56;76.19;97973.44;10332662;28;20504;-58